Dornoch, United Kingdom
Current Conditions -  °F | °C
As of 11:50 PM on Thursday 18 Dec 2014 (Local Time) from EGQK Reporting Station
Unknown Precip Unknown Precip  
Wind Chill: 31°   Ceiling: 6000
Heat Index: 37°   Visibility: 6mi
Dew Point: 34°   Wind: 9mph
Humidity: 87%   Direction: 220°SW
Pressure: 29.32"   Gusts: NA
Location:  57.88°N, 4.03°W
Report Text: EGQK 182350Z AUTO 22008KT 9999 UP FEW035/// BKN060/// 03/01 Q0993
Loading
Personal Weather Stations






























Interactive Weather Map New forecast layout! Learn more

10-Day Weather Forecast

Advertisements
Track Severe Weather on mobile